sensor_id;sensor_type;location;lat;lon;timestamp;P1;durP1;ratioP1;P2;durP2;ratioP2
43048;SDS011;28673;44.412;11.918;2023-05-07T00:01:59;25.55;;;14.98;;
43048;SDS011;28673;44.412;11.918;2023-05-07T00:04:25;19.35;;;15.48;;
43048;SDS011;28673;44.412;11.918;2023-05-07T00:07:10;18.50;;;14.23;;
43048;SDS011;28673;44.412;11.918;2023-05-07T00:09:54;20.67;;;16.17;;
43048;SDS011;28673;44.412;11.918;2023-05-07T00:12:20;21.20;;;14.88;;
43048;SDS011;28673;44.412;11.918;2023-05-07T00:15:05;21.15;;;16.05;;
43048;SDS011;28673;44.412;11.918;2023-05-07T00:17:32;21.95;;;14.90;;
43048;SDS011;28673;44.412;11.918;2023-05-07T00:22:43;19.05;;;14.85;;
43048;SDS011;28673;44.412;11.918;2023-05-07T00:25:28;21.17;;;15.27;;
43048;SDS011;28673;44.412;11.918;2023-05-07T00:27:53;22.80;;;15.95;;
43048;SDS011;28673;44.412;11.918;2023-05-07T00:30:19;22.08;;;15.13;;
43048;SDS011;28673;44.412;11.918;2023-05-07T00:35:30;21.00;;;15.75;;
43048;SDS011;28673;44.412;11.918;2023-05-07T00:37:57;22.58;;;15.65;;
43048;SDS011;28673;44.412;11.918;2023-05-07T00:46:29;21.83;;;15.40;;
43048;SDS011;28673;44.412;11.918;2023-05-07T00:51:41;22.75;;;15.25;;
43048;SDS011;28673;44.412;11.918;2023-05-07T00:54:07;21.40;;;15.32;;
43048;SDS011;28673;44.412;11.918;2023-05-07T00:56:34;23.63;;;17.70;;
43048;SDS011;28673;44.412;11.918;2023-05-07T00:59:18;22.50;;;17.27;;
43048;SDS011;28673;44.412;11.918;2023-05-07T01:01:44;21.80;;;15.50;;
43048;SDS011;28673;44.412;11.918;2023-05-07T01:04:10;22.10;;;16.83;;
43048;SDS011;28673;44.412;11.918;2023-05-07T01:06:36;20.27;;;15.48;;
43048;SDS011;28673;44.412;11.918;2023-05-07T01:09:21;25.88;;;15.88;;
43048;SDS011;28673;44.412;11.918;2023-05-07T01:11:51;19.98;;;14.95;;
43048;SDS011;28673;44.412;11.918;2023-05-07T01:17:21;20.13;;;15.25;;
43048;SDS011;28673;44.412;11.918;2023-05-07T01:19:48;23.67;;;17.20;;
43048;SDS011;28673;44.412;11.918;2023-05-07T01:22:15;19.38;;;15.32;;
43048;SDS011;28673;44.412;11.918;2023-05-07T01:24:49;21.90;;;15.45;;
43048;SDS011;28673;44.412;11.918;2023-05-07T01:27:16;22.25;;;15.38;;
43048;SDS011;28673;44.412;11.918;2023-05-07T01:29:42;18.77;;;14.55;;
43048;SDS011;28673;44.412;11.918;2023-05-07T01:32:08;21.10;;;15.43;;
43048;SDS011;28673;44.412;11.918;2023-05-07T01:34:35;17.38;;;13.55;;
43048;SDS011;28673;44.412;11.918;2023-05-07T01:37:02;18.52;;;14.10;;
43048;SDS011;28673;44.412;11.918;2023-05-07T01:39:28;23.48;;;14.50;;
43048;SDS011;28673;44.412;11.918;2023-05-07T01:41:55;18.02;;;14.55;;
43048;SDS011;28673;44.412;11.918;2023-05-07T01:47:07;20.60;;;14.02;;
43048;SDS011;28673;44.412;11.918;2023-05-07T01:52:37;23.88;;;14.65;;
43048;SDS011;28673;44.412;11.918;2023-05-07T01:55:04;19.05;;;13.68;;
43048;SDS011;28673;44.412;11.918;2023-05-07T01:57:31;18.90;;;13.15;;
43048;SDS011;28673;44.412;11.918;2023-05-07T01:59:57;20.73;;;14.52;;
43048;SDS011;28673;44.412;11.918;2023-05-07T02:02:23;21.02;;;14.88;;
43048;SDS011;28673;44.412;11.918;2023-05-07T02:08:27;18.92;;;13.20;;
43048;SDS011;28673;44.412;11.918;2023-05-07T02:10:54;19.02;;;13.60;;
43048;SDS011;28673;44.412;11.918;2023-05-07T02:13:19;20.25;;;14.10;;
43048;SDS011;28673;44.412;11.918;2023-05-07T02:21:35;20.13;;;13.23;;
43048;SDS011;28673;44.412;11.918;2023-05-07T02:24:01;18.90;;;13.40;;
43048;SDS011;28673;44.412;11.918;2023-05-07T02:26:27;22.60;;;12.85;;
43048;SDS011;28673;44.412;11.918;2023-05-07T02:31:39;18.02;;;12.75;;
43048;SDS011;28673;44.412;11.918;2023-05-07T02:34:23;15.77;;;12.15;;
43048;SDS011;28673;44.412;11.918;2023-05-07T02:42:18;18.08;;;12.20;;
43048;SDS011;28673;44.412;11.918;2023-05-07T02:44:44;16.75;;;13.15;;
43048;SDS011;28673;44.412;11.918;2023-05-07T02:47:10;19.17;;;12.65;;
43048;SDS011;28673;44.412;11.918;2023-05-07T02:49:39;17.98;;;12.27;;
43048;SDS011;28673;44.412;11.918;2023-05-07T02:52:07;15.68;;;12.35;;
43048;SDS011;28673;44.412;11.918;2023-05-07T02:54:33;16.23;;;12.07;;
43048;SDS011;28673;44.412;11.918;2023-05-07T02:57:17;18.70;;;12.75;;
43048;SDS011;28673;44.412;11.918;2023-05-07T02:59:43;18.60;;;12.73;;
43048;SDS011;28673;44.412;11.918;2023-05-07T03:02:10;20.20;;;11.63;;
43048;SDS011;28673;44.412;11.918;2023-05-07T03:04:36;16.23;;;12.38;;
43048;SDS011;28673;44.412;11.918;2023-05-07T03:07:01;18.67;;;11.40;;
43048;SDS011;28673;44.412;11.918;2023-05-07T03:09:27;14.82;;;11.85;;
43048;SDS011;28673;44.412;11.918;2023-05-07T03:14:38;17.95;;;12.25;;
43048;SDS011;28673;44.412;11.918;2023-05-07T03:17:04;16.88;;;11.70;;
43048;SDS011;28673;44.412;11.918;2023-05-07T03:19:48;18.33;;;12.38;;
43048;SDS011;28673;44.412;11.918;2023-05-07T03:22:14;14.55;;;11.15;;
43048;SDS011;28673;44.412;11.918;2023-05-07T03:24:40;20.10;;;13.48;;
43048;SDS011;28673;44.412;11.918;2023-05-07T03:27:06;17.00;;;12.98;;
43048;SDS011;28673;44.412;11.918;2023-05-07T03:29:52;19.33;;;12.10;;
43048;SDS011;28673;44.412;11.918;2023-05-07T03:32:19;16.05;;;12.13;;
43048;SDS011;28673;44.412;11.918;2023-05-07T03:34:44;16.70;;;12.23;;
43048;SDS011;28673;44.412;11.918;2023-05-07T03:37:48;16.33;;;11.93;;
43048;SDS011;28673;44.412;11.918;2023-05-07T03:40:14;19.05;;;11.38;;
43048;SDS011;28673;44.412;11.918;2023-05-07T03:42:45;14.77;;;11.88;;
43048;SDS011;28673;44.412;11.918;2023-05-07T03:45:12;16.50;;;11.85;;
43048;SDS011;28673;44.412;11.918;2023-05-07T03:47:43;14.82;;;11.48;;
43048;SDS011;28673;44.412;11.918;2023-05-07T03:50:10;15.70;;;11.63;;
43048;SDS011;28673;44.412;11.918;2023-05-07T03:52:36;18.50;;;10.75;;
43048;SDS011;28673;44.412;11.918;2023-05-07T03:55:04;14.52;;;11.00;;
43048;SDS011;28673;44.412;11.918;2023-05-07T03:57:33;17.08;;;12.30;;
43048;SDS011;28673;44.412;11.918;2023-05-07T04:03:16;16.25;;;11.45;;
43048;SDS011;28673;44.412;11.918;2023-05-07T04:05:42;15.65;;;11.48;;
43048;SDS011;28673;44.412;11.918;2023-05-07T04:08:09;24.08;;;13.20;;
43048;SDS011;28673;44.412;11.918;2023-05-07T04:13:27;17.77;;;12.30;;
43048;SDS011;28673;44.412;11.918;2023-05-07T04:15:54;17.95;;;12.60;;
43048;SDS011;28673;44.412;11.918;2023-05-07T04:18:39;17.30;;;11.50;;
43048;SDS011;28673;44.412;11.918;2023-05-07T04:21:23;16.95;;;11.88;;
43048;SDS011;28673;44.412;11.918;2023-05-07T04:26:35;18.90;;;12.32;;
43048;SDS011;28673;44.412;11.918;2023-05-07T04:29:01;20.83;;;13.30;;
43048;SDS011;28673;44.412;11.918;2023-05-07T04:31:31;18.55;;;13.65;;
43048;SDS011;28673;44.412;11.918;2023-05-07T04:34:35;18.58;;;13.77;;
43048;SDS011;28673;44.412;11.918;2023-05-07T04:37:01;23.10;;;13.10;;
43048;SDS011;28673;44.412;11.918;2023-05-07T04:39:27;19.27;;;14.18;;
43048;SDS011;28673;44.412;11.918;2023-05-07T04:41:54;20.27;;;14.88;;
43048;SDS011;28673;44.412;11.918;2023-05-07T04:47:25;17.65;;;13.25;;
43048;SDS011;28673;44.412;11.918;2023-05-07T04:49:51;21.38;;;14.63;;
43048;SDS011;28673;44.412;11.918;2023-05-07T04:55:58;27.63;;;18.20;;
43048;SDS011;28673;44.412;11.918;2023-05-07T04:58:30;26.02;;;18.25;;
43048;SDS011;28673;44.412;11.918;2023-05-07T05:00:57;32.13;;;19.95;;
43048;SDS011;28673;44.412;11.918;2023-05-07T05:03:42;26.40;;;18.92;;
43048;SDS011;28673;44.412;11.918;2023-05-07T05:06:26;26.98;;;19.58;;
43048;SDS011;28673;44.412;11.918;2023-05-07T05:09:12;25.30;;;17.50;;
43048;SDS011;28673;44.412;11.918;2023-05-07T05:11:40;30.65;;;20.55;;
43048;SDS011;28673;44.412;11.918;2023-05-07T05:17:10;29.83;;;19.50;;
43048;SDS011;28673;44.412;11.918;2023-05-07T05:22:43;24.77;;;18.55;;
43048;SDS011;28673;44.412;11.918;2023-05-07T05:27:37;25.10;;;18.83;;
43048;SDS011;28673;44.412;11.918;2023-05-07T05:30:04;30.45;;;20.63;;
43048;SDS011;28673;44.412;11.918;2023-05-07T05:32:32;33.30;;;22.23;;
43048;SDS011;28673;44.412;11.918;2023-05-07T05:34:58;38.35;;;23.23;;
43048;SDS011;28673;44.412;11.918;2023-05-07T05:40:28;35.20;;;23.98;;
43048;SDS011;28673;44.412;11.918;2023-05-07T05:42:55;44.95;;;24.67;;
43048;SDS011;28673;44.412;11.918;2023-05-07T05:45:40;36.28;;;23.25;;
43048;SDS011;28673;44.412;11.918;2023-05-07T05:48:06;33.40;;;23.88;;
43048;SDS011;28673;44.412;11.918;2023-05-07T05:50:50;32.50;;;23.20;;
43048;SDS011;28673;44.412;11.918;2023-05-07T05:53:17;33.65;;;24.02;;
43048;SDS011;28673;44.412;11.918;2023-05-07T05:55:43;41.05;;;25.33;;
43048;SDS011;28673;44.412;11.918;2023-05-07T06:00:59;32.95;;;22.17;;
43048;SDS011;28673;44.412;11.918;2023-05-07T06:03:30;42.60;;;21.77;;
43048;SDS011;28673;44.412;11.918;2023-05-07T06:06:16;33.40;;;21.67;;
43048;SDS011;28673;44.412;11.918;2023-05-07T06:08:43;30.67;;;21.48;;
43048;SDS011;28673;44.412;11.918;2023-05-07T06:11:11;28.17;;;21.55;;
43048;SDS011;28673;44.412;11.918;2023-05-07T06:13:55;31.00;;;21.75;;
43048;SDS011;28673;44.412;11.918;2023-05-07T06:16:24;31.95;;;22.48;;
43048;SDS011;28673;44.412;11.918;2023-05-07T06:18:50;28.15;;;20.88;;
43048;SDS011;28673;44.412;11.918;2023-05-07T06:24:20;34.17;;;20.55;;
43048;SDS011;28673;44.412;11.918;2023-05-07T06:27:07;31.55;;;20.27;;
43048;SDS011;28673;44.412;11.918;2023-05-07T06:32:17;31.55;;;21.05;;
43048;SDS011;28673;44.412;11.918;2023-05-07T06:34:45;32.85;;;21.42;;
43048;SDS011;28673;44.412;11.918;2023-05-07T06:37:12;27.05;;;20.67;;
43048;SDS011;28673;44.412;11.918;2023-05-07T06:40:07;30.73;;;20.27;;
43048;SDS011;28673;44.412;11.918;2023-05-07T06:45:39;26.90;;;19.52;;
43048;SDS011;28673;44.412;11.918;2023-05-07T06:48:07;32.33;;;21.52;;
43048;SDS011;28673;44.412;11.918;2023-05-07T06:50:43;31.83;;;21.10;;
43048;SDS011;28673;44.412;11.918;2023-05-07T06:55:56;29.40;;;20.33;;
43048;SDS011;28673;44.412;11.918;2023-05-07T06:58:22;26.73;;;20.85;;
43048;SDS011;28673;44.412;11.918;2023-05-07T07:06:21;25.23;;;18.70;;
43048;SDS011;28673;44.412;11.918;2023-05-07T07:08:47;24.23;;;15.50;;
43048;SDS011;28673;44.412;11.918;2023-05-07T07:11:16;20.00;;;15.18;;
43048;SDS011;28673;44.412;11.918;2023-05-07T07:14:02;23.17;;;16.73;;
43048;SDS011;28673;44.412;11.918;2023-05-07T07:16:31;23.93;;;16.70;;
43048;SDS011;28673;44.412;11.918;2023-05-07T07:18:57;25.58;;;18.33;;
43048;SDS011;28673;44.412;11.918;2023-05-07T07:21:23;23.85;;;17.60;;
43048;SDS011;28673;44.412;11.918;2023-05-07T07:24:07;25.58;;;19.02;;
43048;SDS011;28673;44.412;11.918;2023-05-07T07:26:56;22.92;;;17.45;;
43048;SDS011;28673;44.412;11.918;2023-05-07T07:29:24;21.95;;;16.02;;
43048;SDS011;28673;44.412;11.918;2023-05-07T07:31:52;20.33;;;15.30;;
43048;SDS011;28673;44.412;11.918;2023-05-07T07:34:37;22.42;;;17.45;;
43048;SDS011;28673;44.412;11.918;2023-05-07T07:37:03;24.20;;;16.40;;
43048;SDS011;28673;44.412;11.918;2023-05-07T07:39:48;21.75;;;16.90;;
43048;SDS011;28673;44.412;11.918;2023-05-07T07:42:14;20.08;;;16.63;;
43048;SDS011;28673;44.412;11.918;2023-05-07T07:44:40;23.45;;;15.65;;
43048;SDS011;28673;44.412;11.918;2023-05-07T07:47:08;22.55;;;16.33;;
43048;SDS011;28673;44.412;11.918;2023-05-07T07:49:34;23.70;;;17.15;;
43048;SDS011;28673;44.412;11.918;2023-05-07T07:52:21;21.65;;;15.05;;
43048;SDS011;28673;44.412;11.918;2023-05-07T07:55:08;21.80;;;16.13;;
43048;SDS011;28673;44.412;11.918;2023-05-07T07:57:35;27.10;;;15.20;;
43048;SDS011;28673;44.412;11.918;2023-05-07T08:00:01;16.52;;;13.48;;
43048;SDS011;28673;44.412;11.918;2023-05-07T08:02:30;19.45;;;13.57;;
43048;SDS011;28673;44.412;11.918;2023-05-07T08:04:57;15.27;;;13.48;;
43048;SDS011;28673;44.412;11.918;2023-05-07T08:10:09;21.25;;;12.43;;
43048;SDS011;28673;44.412;11.918;2023-05-07T08:12:35;16.23;;;11.77;;
43048;SDS011;28673;44.412;11.918;2023-05-07T08:15:01;17.02;;;9.40;;
43048;SDS011;28673;44.412;11.918;2023-05-07T08:20:30;11.63;;;9.05;;
43048;SDS011;28673;44.412;11.918;2023-05-07T08:22:57;11.55;;;8.70;;
43048;SDS011;28673;44.412;11.918;2023-05-07T08:25:24;10.68;;;8.52;;
43048;SDS011;28673;44.412;11.918;2023-05-07T08:27:50;11.45;;;7.65;;
43048;SDS011;28673;44.412;11.918;2023-05-07T08:30:35;8.60;;;7.47;;
43048;SDS011;28673;44.412;11.918;2023-05-07T08:33:00;12.10;;;8.43;;
43048;SDS011;28673;44.412;11.918;2023-05-07T08:35:45;11.00;;;8.65;;
43048;SDS011;28673;44.412;11.918;2023-05-07T08:38:13;13.93;;;7.50;;
43048;SDS011;28673;44.412;11.918;2023-05-07T08:40:40;12.63;;;8.90;;
43048;SDS011;28673;44.412;11.918;2023-05-07T08:43:12;10.73;;;8.07;;
43048;SDS011;28673;44.412;11.918;2023-05-07T08:45:57;10.00;;;7.50;;
43048;SDS011;28673;44.412;11.918;2023-05-07T08:48:29;10.88;;;8.10;;
43048;SDS011;28673;44.412;11.918;2023-05-07T08:51:04;13.73;;;9.25;;
43048;SDS011;28673;44.412;11.918;2023-05-07T08:53:31;8.15;;;7.35;;
43048;SDS011;28673;44.412;11.918;2023-05-07T08:56:02;9.60;;;7.40;;
43048;SDS011;28673;44.412;11.918;2023-05-07T09:00:55;10.68;;;7.85;;
43048;SDS011;28673;44.412;11.918;2023-05-07T09:03:22;10.30;;;8.48;;
43048;SDS011;28673;44.412;11.918;2023-05-07T09:06:07;14.93;;;7.80;;
43048;SDS011;28673;44.412;11.918;2023-05-07T09:08:33;7.72;;;6.35;;
43048;SDS011;28673;44.412;11.918;2023-05-07T09:11:07;10.02;;;7.82;;
43048;SDS011;28673;44.412;11.918;2023-05-07T09:13:33;8.30;;;7.38;;
43048;SDS011;28673;44.412;11.918;2023-05-07T09:16:17;11.18;;;9.63;;
43048;SDS011;28673;44.412;11.918;2023-05-07T09:18:48;10.05;;;7.75;;
43048;SDS011;28673;44.412;11.918;2023-05-07T09:21:25;9.32;;;7.90;;
43048;SDS011;28673;44.412;11.918;2023-05-07T09:27:19;9.57;;;7.95;;
43048;SDS011;28673;44.412;11.918;2023-05-07T09:32:34;10.30;;;7.75;;
43048;SDS011;28673;44.412;11.918;2023-05-07T09:35:15;12.27;;;8.18;;
43048;SDS011;28673;44.412;11.918;2023-05-07T09:37:44;13.45;;;8.43;;
43048;SDS011;28673;44.412;11.918;2023-05-07T09:40:31;13.38;;;11.25;;
43048;SDS011;28673;44.412;11.918;2023-05-07T09:43:11;10.52;;;8.73;;
43048;SDS011;28673;44.412;11.918;2023-05-07T09:45:49;16.40;;;14.70;;
43048;SDS011;28673;44.412;11.918;2023-05-07T09:51:10;18.98;;;12.57;;
43048;SDS011;28673;44.412;11.918;2023-05-07T09:53:37;10.05;;;7.53;;
43048;SDS011;28673;44.412;11.918;2023-05-07T09:56:04;10.18;;;7.60;;
43048;SDS011;28673;44.412;11.918;2023-05-07T09:58:31;10.80;;;6.72;;
43048;SDS011;28673;44.412;11.918;2023-05-07T10:00:58;8.63;;;6.20;;
43048;SDS011;28673;44.412;11.918;2023-05-07T10:06:13;7.97;;;5.50;;
43048;SDS011;28673;44.412;11.918;2023-05-07T10:11:28;7.05;;;5.68;;
43048;SDS011;28673;44.412;11.918;2023-05-07T10:13:54;17.40;;;6.03;;
43048;SDS011;28673;44.412;11.918;2023-05-07T10:16:21;9.00;;;6.18;;
43048;SDS011;28673;44.412;11.918;2023-05-07T10:18:48;6.20;;;4.97;;
43048;SDS011;28673;44.412;11.918;2023-05-07T10:21:40;8.88;;;5.18;;
43048;SDS011;28673;44.412;11.918;2023-05-07T10:24:14;8.50;;;4.97;;
43048;SDS011;28673;44.412;11.918;2023-05-07T10:35:10;6.88;;;5.18;;
43048;SDS011;28673;44.412;11.918;2023-05-07T10:37:43;6.32;;;4.72;;
43048;SDS011;28673;44.412;11.918;2023-05-07T10:40:31;4.95;;;4.03;;
43048;SDS011;28673;44.412;11.918;2023-05-07T10:43:04;6.15;;;5.55;;
43048;SDS011;28673;44.412;11.918;2023-05-07T10:45:37;12.90;;;6.53;;
43048;SDS011;28673;44.412;11.918;2023-05-07T10:51:27;7.47;;;5.60;;
43048;SDS011;28673;44.412;11.918;2023-05-07T10:54:24;7.03;;;6.18;;
43048;SDS011;28673;44.412;11.918;2023-05-07T10:57:01;4.70;;;3.83;;
43048;SDS011;28673;44.412;11.918;2023-05-07T11:00:03;5.65;;;3.80;;
43048;SDS011;28673;44.412;11.918;2023-05-07T11:06:11;8.55;;;5.53;;
43048;SDS011;28673;44.412;11.918;2023-05-07T11:08:57;4.93;;;4.43;;
43048;SDS011;28673;44.412;11.918;2023-05-07T11:15:33;10.63;;;5.57;;
43048;SDS011;28673;44.412;11.918;2023-05-07T11:20:54;6.55;;;5.40;;
43048;SDS011;28673;44.412;11.918;2023-05-07T11:26:24;8.30;;;6.85;;
43048;SDS011;28673;44.412;11.918;2023-05-07T11:29:12;10.27;;;5.43;;
43048;SDS011;28673;44.412;11.918;2023-05-07T11:31:43;12.02;;;7.13;;
43048;SDS011;28673;44.412;11.918;2023-05-07T11:34:32;4.90;;;4.40;;
43048;SDS011;28673;44.412;11.918;2023-05-07T11:37:17;7.30;;;6.22;;
43048;SDS011;28673;44.412;11.918;2023-05-07T11:40:05;10.73;;;6.90;;
43048;SDS011;28673;44.412;11.918;2023-05-07T11:42:33;6.78;;;5.72;;
43048;SDS011;28673;44.412;11.918;2023-05-07T11:45:23;7.40;;;6.63;;
43048;SDS011;28673;44.412;11.918;2023-05-07T11:47:52;6.35;;;5.60;;
43048;SDS011;28673;44.412;11.918;2023-05-07T11:50:18;6.72;;;5.95;;
43048;SDS011;28673;44.412;11.918;2023-05-07T11:52:53;7.18;;;6.30;;
43048;SDS011;28673;44.412;11.918;2023-05-07T11:55:19;7.15;;;6.10;;
43048;SDS011;28673;44.412;11.918;2023-05-07T11:58:05;8.52;;;6.38;;
43048;SDS011;28673;44.412;11.918;2023-05-07T12:00:31;6.20;;;5.60;;
43048;SDS011;28673;44.412;11.918;2023-05-07T12:03:02;5.03;;;4.30;;
43048;SDS011;28673;44.412;11.918;2023-05-07T12:05:32;6.50;;;5.63;;
43048;SDS011;28673;44.412;11.918;2023-05-07T12:07:58;6.70;;;5.40;;
43048;SDS011;28673;44.412;11.918;2023-05-07T12:10:25;8.57;;;5.60;;
43048;SDS011;28673;44.412;11.918;2023-05-07T12:12:51;9.07;;;6.72;;
43048;SDS011;28673;44.412;11.918;2023-05-07T12:15:17;7.00;;;4.53;;
43048;SDS011;28673;44.412;11.918;2023-05-07T12:17:47;6.35;;;5.20;;
43048;SDS011;28673;44.412;11.918;2023-05-07T12:23:19;6.47;;;5.28;;
43048;SDS011;28673;44.412;11.918;2023-05-07T12:26:05;6.45;;;5.43;;
43048;SDS011;28673;44.412;11.918;2023-05-07T12:28:50;6.65;;;5.65;;
43048;SDS011;28673;44.412;11.918;2023-05-07T12:31:16;9.27;;;4.82;;
43048;SDS011;28673;44.412;11.918;2023-05-07T12:36:36;7.95;;;5.80;;
43048;SDS011;28673;44.412;11.918;2023-05-07T12:39:04;8.30;;;7.10;;
43048;SDS011;28673;44.412;11.918;2023-05-07T12:41:55;10.95;;;9.20;;
43048;SDS011;28673;44.412;11.918;2023-05-07T12:47:29;10.05;;;7.53;;
43048;SDS011;28673;44.412;11.918;2023-05-07T12:49:55;9.55;;;7.97;;
43048;SDS011;28673;44.412;11.918;2023-05-07T12:52:21;8.60;;;7.55;;
43048;SDS011;28673;44.412;11.918;2023-05-07T12:54:47;7.72;;;6.85;;
43048;SDS011;28673;44.412;11.918;2023-05-07T13:00:18;12.77;;;8.15;;
43048;SDS011;28673;44.412;11.918;2023-05-07T13:02:58;8.73;;;6.80;;
43048;SDS011;28673;44.412;11.918;2023-05-07T13:05:24;8.50;;;7.03;;
43048;SDS011;28673;44.412;11.918;2023-05-07T13:08:09;13.63;;;6.93;;
43048;SDS011;28673;44.412;11.918;2023-05-07T13:10:35;9.68;;;6.82;;
43048;SDS011;28673;44.412;11.918;2023-05-07T13:13:01;12.50;;;7.38;;
43048;SDS011;28673;44.412;11.918;2023-05-07T13:15:45;8.32;;;7.43;;
43048;SDS011;28673;44.412;11.918;2023-05-07T13:18:12;5.97;;;5.05;;
43048;SDS011;28673;44.412;11.918;2023-05-07T13:20:38;7.32;;;6.25;;
43048;SDS011;28673;44.412;11.918;2023-05-07T13:23:04;7.68;;;6.55;;
43048;SDS011;28673;44.412;11.918;2023-05-07T13:25:30;8.30;;;6.40;;
43048;SDS011;28673;44.412;11.918;2023-05-07T13:27:56;7.70;;;6.93;;
43048;SDS011;28673;44.412;11.918;2023-05-07T13:30:22;7.70;;;6.97;;
43048;SDS011;28673;44.412;11.918;2023-05-07T13:32:48;9.30;;;6.22;;
43048;SDS011;28673;44.412;11.918;2023-05-07T13:35:34;9.95;;;6.43;;
43048;SDS011;28673;44.412;11.918;2023-05-07T13:38:00;7.60;;;5.95;;
43048;SDS011;28673;44.412;11.918;2023-05-07T13:40:45;9.95;;;7.47;;
43048;SDS011;28673;44.412;11.918;2023-05-07T13:43:29;8.02;;;6.50;;
43048;SDS011;28673;44.412;11.918;2023-05-07T13:48:40;7.40;;;6.43;;
43048;SDS011;28673;44.412;11.918;2023-05-07T13:51:06;8.93;;;6.13;;
43048;SDS011;28673;44.412;11.918;2023-05-07T13:56:17;7.63;;;5.57;;
43048;SDS011;28673;44.412;11.918;2023-05-07T13:58:46;7.85;;;5.03;;
43048;SDS011;28673;44.412;11.918;2023-05-07T14:01:12;7.93;;;5.22;;
43048;SDS011;28673;44.412;11.918;2023-05-07T14:03:57;7.28;;;5.57;;
43048;SDS011;28673;44.412;11.918;2023-05-07T14:06:25;7.05;;;5.38;;
43048;SDS011;28673;44.412;11.918;2023-05-07T14:12:13;9.63;;;5.53;;
43048;SDS011;28673;44.412;11.918;2023-05-07T14:14:39;5.38;;;4.88;;
43048;SDS011;28673;44.412;11.918;2023-05-07T14:17:05;5.18;;;4.68;;
43048;SDS011;28673;44.412;11.918;2023-05-07T14:19:31;7.63;;;4.90;;
43048;SDS011;28673;44.412;11.918;2023-05-07T14:22:15;10.90;;;5.45;;
43048;SDS011;28673;44.412;11.918;2023-05-07T14:24:41;9.52;;;5.63;;
43048;SDS011;28673;44.412;11.918;2023-05-07T14:27:07;5.90;;;4.18;;
43048;SDS011;28673;44.412;11.918;2023-05-07T14:29:59;6.07;;;4.95;;
43048;SDS011;28673;44.412;11.918;2023-05-07T14:32:25;7.53;;;6.55;;
43048;SDS011;28673;44.412;11.918;2023-05-07T14:35:28;7.85;;;5.07;;
43048;SDS011;28673;44.412;11.918;2023-05-07T14:38:13;8.43;;;4.60;;
43048;SDS011;28673;44.412;11.918;2023-05-07T14:40:38;8.32;;;3.65;;
43048;SDS011;28673;44.412;11.918;2023-05-07T14:43:04;15.15;;;6.63;;
43048;SDS011;28673;44.412;11.918;2023-05-07T14:45:30;7.70;;;5.50;;
43048;SDS011;28673;44.412;11.918;2023-05-07T14:48:17;8.75;;;4.78;;
43048;SDS011;28673;44.412;11.918;2023-05-07T14:50:43;7.60;;;4.47;;
43048;SDS011;28673;44.412;11.918;2023-05-07T14:53:11;6.63;;;5.55;;
43048;SDS011;28673;44.412;11.918;2023-05-07T14:55:59;5.32;;;4.20;;
43048;SDS011;28673;44.412;11.918;2023-05-07T14:58:25;9.00;;;4.68;;
43048;SDS011;28673;44.412;11.918;2023-05-07T15:03:54;5.15;;;4.65;;
43048;SDS011;28673;44.412;11.918;2023-05-07T15:06:39;5.90;;;3.65;;
43048;SDS011;28673;44.412;11.918;2023-05-07T15:09:05;3.92;;;3.53;;
43048;SDS011;28673;44.412;11.918;2023-05-07T15:11:49;6.15;;;4.28;;
43048;SDS011;28673;44.412;11.918;2023-05-07T15:14:34;9.23;;;4.20;;
43048;SDS011;28673;44.412;11.918;2023-05-07T15:17:00;5.60;;;3.88;;
43048;SDS011;28673;44.412;11.918;2023-05-07T15:19:44;4.50;;;3.78;;
43048;SDS011;28673;44.412;11.918;2023-05-07T15:22:29;8.48;;;4.53;;
43048;SDS011;28673;44.412;11.918;2023-05-07T15:25:14;6.50;;;4.30;;
43048;SDS011;28673;44.412;11.918;2023-05-07T15:27:58;4.20;;;3.80;;
43048;SDS011;28673;44.412;11.918;2023-05-07T15:30:24;5.65;;;3.83;;
43048;SDS011;28673;44.412;11.918;2023-05-07T15:33:08;3.83;;;3.42;;
43048;SDS011;28673;44.412;11.918;2023-05-07T15:35:34;4.18;;;3.42;;
43048;SDS011;28673;44.412;11.918;2023-05-07T15:38:00;4.68;;;3.33;;
43048;SDS011;28673;44.412;11.918;2023-05-07T15:40:27;6.25;;;3.53;;
43048;SDS011;28673;44.412;11.918;2023-05-07T15:42:54;4.70;;;3.63;;
43048;SDS011;28673;44.412;11.918;2023-05-07T15:45:40;8.43;;;3.83;;
43048;SDS011;28673;44.412;11.918;2023-05-07T15:48:07;4.72;;;3.92;;
43048;SDS011;28673;44.412;11.918;2023-05-07T15:50:53;6.88;;;3.42;;
43048;SDS011;28673;44.412;11.918;2023-05-07T15:53:19;5.20;;;3.78;;
43048;SDS011;28673;44.412;11.918;2023-05-07T15:56:22;4.15;;;3.40;;
43048;SDS011;28673;44.412;11.918;2023-05-07T15:58:49;4.72;;;4.00;;
43048;SDS011;28673;44.412;11.918;2023-05-07T16:01:15;4.28;;;3.58;;
43048;SDS011;28673;44.412;11.918;2023-05-07T16:03:59;4.80;;;4.30;;
43048;SDS011;28673;44.412;11.918;2023-05-07T16:06:25;12.68;;;5.03;;
43048;SDS011;28673;44.412;11.918;2023-05-07T16:09:11;4.57;;;4.18;;
43048;SDS011;28673;44.412;11.918;2023-05-07T16:11:39;5.03;;;4.53;;
43048;SDS011;28673;44.412;11.918;2023-05-07T16:14:05;4.88;;;4.35;;
43048;SDS011;28673;44.412;11.918;2023-05-07T16:16:49;6.85;;;4.43;;
43048;SDS011;28673;44.412;11.918;2023-05-07T16:19:34;9.73;;;6.53;;
43048;SDS011;28673;44.412;11.918;2023-05-07T16:22:00;8.27;;;5.00;;
43048;SDS011;28673;44.412;11.918;2023-05-07T16:24:26;5.72;;;5.10;;
43048;SDS011;28673;44.412;11.918;2023-05-07T16:26:52;6.20;;;5.10;;
43048;SDS011;28673;44.412;11.918;2023-05-07T16:29:18;5.28;;;4.72;;
43048;SDS011;28673;44.412;11.918;2023-05-07T16:32:02;6.28;;;4.40;;
43048;SDS011;28673;44.412;11.918;2023-05-07T16:34:28;5.68;;;4.57;;
43048;SDS011;28673;44.412;11.918;2023-05-07T16:36:54;7.07;;;4.40;;
43048;SDS011;28673;44.412;11.918;2023-05-07T16:39:20;7.35;;;4.25;;
43048;SDS011;28673;44.412;11.918;2023-05-07T16:41:46;7.80;;;4.40;;
43048;SDS011;28673;44.412;11.918;2023-05-07T16:44:16;5.93;;;4.15;;
43048;SDS011;28673;44.412;11.918;2023-05-07T16:46:42;6.43;;;4.85;;
43048;SDS011;28673;44.412;11.918;2023-05-07T16:49:08;5.28;;;4.40;;
43048;SDS011;28673;44.412;11.918;2023-05-07T16:51:52;6.57;;;5.82;;
43048;SDS011;28673;44.412;11.918;2023-05-07T16:54:18;4.97;;;4.47;;
43048;SDS011;28673;44.412;11.918;2023-05-07T16:56:44;4.88;;;4.38;;
43048;SDS011;28673;44.412;11.918;2023-05-07T16:59:10;6.43;;;4.63;;
43048;SDS011;28673;44.412;11.918;2023-05-07T17:01:35;6.40;;;5.18;;
43048;SDS011;28673;44.412;11.918;2023-05-07T17:04:01;5.05;;;4.40;;
43048;SDS011;28673;44.412;11.918;2023-05-07T17:06:46;9.13;;;4.93;;
43048;SDS011;28673;44.412;11.918;2023-05-07T17:09:11;6.80;;;5.10;;
43048;SDS011;28673;44.412;11.918;2023-05-07T17:14:59;8.18;;;5.68;;
43048;SDS011;28673;44.412;11.918;2023-05-07T17:17:25;8.57;;;4.93;;
43048;SDS011;28673;44.412;11.918;2023-05-07T17:19:51;9.35;;;5.63;;
43048;SDS011;28673;44.412;11.918;2023-05-07T17:22:16;5.70;;;5.10;;
43048;SDS011;28673;44.412;11.918;2023-05-07T17:24:45;8.52;;;5.90;;
43048;SDS011;28673;44.412;11.918;2023-05-07T17:27:36;11.23;;;6.47;;
43048;SDS011;28673;44.412;11.918;2023-05-07T17:30:02;16.90;;;6.63;;
43048;SDS011;28673;44.412;11.918;2023-05-07T17:32:28;9.73;;;6.57;;
43048;SDS011;28673;44.412;11.918;2023-05-07T17:34:54;11.25;;;6.90;;